CYYD

Smithers Airport

Smithers, , Canada
TAF CYYD 190038Z 1901/1906 17008KT P6SM SCT030 BKN080 TEMPO 1901/1906 P6SM -SN BKN030 RMK NXT FCST WILL BE ISSUED AT 191345Z
Issued Valid From Valid To
Jan-19 @ 00:38 UTC
(2 hours ago)
Jan-19 @ 01:00 UTC
(2 hours ago)
Jan-19 @ 06:00 UTC
(in 3 hours)
Jan-19 @ 01:00 to Jan-19 @ 06:00
TAF CYYD 190038Z 1901/1906 17008KT P6SM SCT030 BKN080
Wind Visibility Clouds
170° at 8 knots Greater than 6 miles
  • Scattered at 3,000' AGL
  • Broken at 8,000' AGL
Temporary Jan-19 @ 01:00 to Jan-19 @ 06:00
TEMPO 1901/1906 P6SM -SN BKN030 RMK NXT FCST WILL BE ISSUED AT 191345Z
Visibility Clouds Conditions
Greater than 6 miles
  • Broken at 3,000' AGL
  • Light Snow
TAF CYYD 190038Z 1901/1906 17008KT P6SM SCT030 BKN080 TEMPO 1901/1906 P6SM -SN BKN030 RMK NXT FCST WILL BE ISSUED AT 191345Z
Issued Jan-19 @ 00:38 UTC
(2 hours ago)
Valid From Jan-19 @ 01:00 UTC
(2 hours ago)
Valid To Jan-19 @ 06:00 UTC
(in 3 hours)
Jan-19 @ 01:00 - Jan-19 @ 06:00
Wind Visibility
170° at 8 knots Greater than 6 miles
Clouds
  • Scattered at 3,000' AGL
  • Broken at 8,000' AGL
Temporary Jan-19 @ 01:00 - Jan-19 @ 06:00
Clouds
  • Broken at 3,000' AGL
Conditions
  • Light Snow